createdAt,value
2022-08-21T00:00:44.069Z,99.90
2022-08-21T00:03:11.793Z,99.90
2022-08-21T00:05:54.470Z,99.90
2022-08-21T00:08:21.814Z,99.90
2022-08-21T00:10:56.471Z,99.90
2022-08-21T00:13:29.461Z,99.90
2022-08-21T00:16:02.450Z,99.90
2022-08-21T00:18:29.368Z,99.90
2022-08-21T00:21:02.463Z,99.90
2022-08-21T00:23:29.344Z,99.90
2022-08-21T00:26:02.471Z,99.90
2022-08-21T00:28:29.418Z,99.90
2022-08-21T00:31:02.470Z,99.90
2022-08-21T00:33:29.369Z,99.90
2022-08-21T00:36:02.476Z,99.90
2022-08-21T00:38:29.394Z,99.90
2022-08-21T00:41:36.396Z,99.90
2022-08-21T00:44:02.500Z,99.90
2022-08-21T00:46:29.580Z,99.90
2022-08-21T00:48:57.250Z,99.90
2022-08-21T00:51:44.576Z,99.90
2022-08-21T00:54:18.138Z,99.90
2022-08-21T00:56:55.650Z,99.90
2022-08-21T00:59:33.527Z,99.90
2022-08-21T01:02:00.416Z,99.90
2022-08-21T01:04:27.481Z,99.90
2022-08-21T01:07:00.550Z,99.90
2022-08-21T01:09:27.632Z,99.90
2022-08-21T01:12:01.578Z,99.90
2022-08-21T01:14:28.508Z,99.90
2022-08-21T01:17:01.499Z,99.90
2022-08-21T01:19:28.716Z,99.90
2022-08-21T01:22:02.514Z,99.90
2022-08-21T01:24:29.444Z,99.90
2022-08-21T01:27:02.528Z,99.90
2022-08-21T01:29:52.285Z,99.90
2022-08-21T01:32:26.537Z,99.90
2022-08-21T01:34:53.700Z,99.90
2022-08-21T01:37:28.519Z,99.90
2022-08-21T01:40:01.567Z,99.90
2022-08-21T01:42:28.510Z,99.90
2022-08-21T01:45:01.625Z,99.90
2022-08-21T01:47:28.604Z,99.90
2022-08-21T01:50:01.522Z,99.90
2022-08-21T01:52:35.539Z,99.90
2022-08-21T01:55:02.512Z,99.90
2022-08-21T01:57:35.565Z,99.90
2022-08-21T02:00:03.882Z,99.90
2022-08-21T02:02:30.750Z,99.90
2022-08-21T02:05:04.549Z,99.90
2022-08-21T02:07:58.537Z,99.90
2022-08-21T02:10:30.867Z,99.90
2022-08-21T02:13:04.530Z,99.90
2022-08-21T02:15:31.722Z,99.90
2022-08-21T02:18:06.545Z,99.90
2022-08-21T02:20:37.157Z,99.90
2022-08-21T02:23:05.318Z,99.90
2022-08-21T02:25:38.543Z,99.90
2022-08-21T02:28:08.842Z,99.90
2022-08-21T02:30:52.562Z,99.90
2022-08-21T02:33:26.761Z,99.90
2022-08-21T02:35:53.714Z,99.90
2022-08-21T02:38:33.535Z,99.90
2022-08-21T02:41:01.771Z,99.90
2022-08-21T02:43:29.142Z,99.90
2022-08-21T02:46:03.547Z,99.90
2022-08-21T02:48:31.681Z,99.90
2022-08-21T02:51:15.547Z,99.90
2022-08-21T02:53:42.769Z,99.90
2022-08-21T02:56:17.573Z,99.90
2022-08-21T02:58:50.992Z,99.90
2022-08-21T03:01:25.583Z,99.90
2022-08-21T03:03:52.555Z,99.90
2022-08-21T03:06:27.595Z,99.90
2022-08-21T03:08:54.447Z,99.90
2022-08-21T03:11:27.574Z,99.90
2022-08-21T03:13:54.473Z,99.90
2022-08-21T03:16:21.361Z,99.90
2022-08-21T03:18:54.602Z,99.90
2022-08-21T03:21:21.466Z,99.90
2022-08-21T03:23:54.583Z,99.90
2022-08-21T03:26:21.477Z,99.90
2022-08-21T03:28:54.586Z,99.90
2022-08-21T03:31:21.477Z,99.90
2022-08-21T03:33:54.623Z,99.90
2022-08-21T03:36:21.503Z,99.90
2022-08-21T03:38:54.627Z,99.90
2022-08-21T03:41:21.674Z,99.90
2022-08-21T03:43:54.617Z,99.90
2022-08-21T03:46:21.517Z,99.90
2022-08-21T03:48:48.412Z,99.90
2022-08-21T03:51:21.647Z,99.90
2022-08-21T03:53:48.515Z,99.90
2022-08-21T03:56:15.582Z,99.90
2022-08-21T03:58:48.634Z,99.90
2022-08-21T04:01:15.557Z,99.90
2022-08-21T04:03:48.595Z,99.90
2022-08-21T04:06:15.470Z,99.90
2022-08-21T04:08:48.605Z,99.90
2022-08-21T04:11:15.535Z,99.90
2022-08-21T04:13:49.630Z,99.90
2022-08-21T04:16:16.561Z,99.90
2022-08-21T04:18:49.628Z,99.90
2022-08-21T04:21:16.552Z,99.90
2022-08-21T04:23:43.795Z,99.90
2022-08-21T04:26:17.630Z,99.90
2022-08-21T04:28:44.522Z,99.90
2022-08-21T04:31:17.630Z,99.90
2022-08-21T04:33:44.565Z,99.90
2022-08-21T04:36:18.654Z,99.90
2022-08-21T04:38:50.612Z,99.90
2022-08-21T04:41:28.022Z,99.90
2022-08-21T04:43:55.919Z,99.90
2022-08-21T04:46:23.624Z,99.90
2022-08-21T04:48:56.642Z,99.90
2022-08-21T04:51:33.663Z,99.90
2022-08-21T04:54:16.904Z,99.90
2022-08-21T04:57:05.692Z,99.90
2022-08-21T04:59:41.366Z,99.90
2022-08-21T05:02:14.644Z,99.90
2022-08-21T05:04:59.835Z,99.90
2022-08-21T05:07:42.769Z,99.90
2022-08-21T05:10:10.166Z,99.90
2022-08-21T05:12:45.682Z,99.90
2022-08-21T05:15:14.895Z,99.90
2022-08-21T05:17:59.384Z,99.90
2022-08-21T05:20:27.741Z,99.90
2022-08-21T05:23:01.699Z,99.90
2022-08-21T05:25:35.676Z,99.90
2022-08-21T05:28:03.072Z,99.90
2022-08-21T05:30:36.678Z,99.90
2022-08-21T05:33:16.662Z,99.90
2022-08-21T05:35:43.559Z,99.90
2022-08-21T05:38:18.477Z,99.90
2022-08-21T05:40:52.727Z,99.90
2022-08-21T05:43:19.672Z,99.90
2022-08-21T05:45:53.679Z,99.90
2022-08-21T05:48:23.438Z,99.90
2022-08-21T05:50:57.692Z,99.90
2022-08-21T05:53:31.680Z,99.90
2022-08-21T05:55:58.557Z,99.90
2022-08-21T05:58:31.702Z,99.90
2022-08-21T06:00:58.567Z,99.90
2022-08-21T06:03:34.704Z,99.90
2022-08-21T06:06:02.212Z,99.90
2022-08-21T06:08:35.733Z,99.90
2022-08-21T06:11:02.888Z,99.90
2022-08-21T06:13:36.686Z,99.90
2022-08-21T06:16:16.717Z,99.90
2022-08-21T06:18:45.033Z,99.90
2022-08-21T06:21:18.771Z,99.90
2022-08-21T06:23:45.674Z,99.90
2022-08-21T06:26:20.714Z,99.90
2022-08-21T06:28:47.603Z,99.90
2022-08-21T06:31:24.730Z,99.40
2022-08-21T06:33:51.985Z,98.70
2022-08-21T06:36:25.734Z,99.90
2022-08-21T06:38:52.594Z,99.90
2022-08-21T06:41:27.070Z,99.90
2022-08-21T06:43:54.902Z,99.90
2022-08-21T06:46:28.784Z,99.90
2022-08-21T06:48:55.999Z,99.90
2022-08-21T06:51:29.725Z,99.90
2022-08-21T06:53:56.643Z,99.90
2022-08-21T06:56:32.745Z,99.90
2022-08-21T06:58:59.895Z,99.90
2022-08-21T07:01:33.866Z,99.90
2022-08-21T07:04:00.796Z,99.90
2022-08-21T07:06:33.963Z,99.90
2022-08-21T07:09:01.097Z,99.90
2022-08-21T07:11:37.047Z,99.90
2022-08-21T07:14:20.452Z,99.90
2022-08-21T07:16:54.762Z,99.90
2022-08-21T07:19:21.679Z,99.90
2022-08-21T07:21:54.780Z,99.90
2022-08-21T07:24:21.669Z,99.90
2022-08-21T07:26:48.539Z,99.90
2022-08-21T07:29:21.759Z,99.90
2022-08-21T07:31:48.647Z,99.90
2022-08-21T07:34:21.785Z,99.90
2022-08-21T07:36:54.772Z,99.90
2022-08-21T07:39:28.790Z,99.80
2022-08-21T07:41:55.656Z,98.70
2022-08-21T07:44:28.775Z,94.90
2022-08-21T07:46:55.656Z,94.50
2022-08-21T07:49:28.773Z,94.00
2022-08-21T07:51:55.641Z,94.20
2022-08-21T07:54:33.919Z,93.20
2022-08-21T07:57:02.188Z,93.00
2022-08-21T07:59:35.800Z,93.20
2022-08-21T08:02:02.757Z,92.00
2022-08-21T08:04:37.809Z,91.50
2022-08-21T08:07:17.457Z,90.70
2022-08-21T08:09:50.807Z,91.30
2022-08-21T08:12:17.697Z,91.40
2022-08-21T08:14:50.801Z,91.30
2022-08-21T08:17:17.695Z,90.80
2022-08-21T08:19:50.802Z,91.20
2022-08-21T08:22:19.092Z,90.90
2022-08-21T08:24:53.842Z,90.70
2022-08-21T08:27:21.465Z,90.40
2022-08-21T08:29:54.827Z,90.90
2022-08-21T08:32:21.935Z,90.20
2022-08-21T08:34:49.552Z,90.30
2022-08-21T08:37:22.999Z,90.10
2022-08-21T08:39:52.447Z,90.60
2022-08-21T08:42:37.823Z,91.10
2022-08-21T08:45:18.827Z,92.30
2022-08-21T08:47:55.842Z,91.90
2022-08-21T08:51:03.054Z,92.30
2022-08-21T08:53:38.038Z,91.70
2022-08-21T08:56:11.839Z,91.90
2022-08-21T08:58:41.579Z,91.60
2022-08-21T09:01:22.918Z,91.60
2022-08-21T09:03:51.774Z,91.40
2022-08-21T09:06:50.002Z,90.70
2022-08-21T09:09:38.859Z,90.70
2022-08-21T09:12:16.348Z,91.50
2022-08-21T09:15:38.861Z,91.30
2022-08-21T09:18:18.861Z,91.00
2022-08-21T09:21:35.007Z,91.80
2022-08-21T09:24:08.192Z,90.90
2022-08-21T09:27:11.877Z,91.70
2022-08-21T09:29:53.953Z,91.00
2022-08-21T09:32:37.730Z,91.80
2022-08-21T09:35:19.921Z,90.80
2022-08-21T09:38:01.255Z,90.70
2022-08-21T09:40:43.092Z,90.00
2022-08-21T09:43:19.900Z,90.40
2022-08-21T09:45:54.910Z,90.20
2022-08-21T09:48:26.299Z,90.10
2022-08-21T09:51:00.882Z,90.30
2022-08-21T09:53:35.475Z,90.20
2022-08-21T09:56:43.066Z,88.60
2022-08-21T09:59:30.837Z,90.00
2022-08-21T10:02:08.906Z,85.00
2022-08-21T10:04:36.724Z,88.70
2022-08-21T10:07:20.908Z,89.60
2022-08-21T10:10:11.009Z,90.50
2022-08-21T10:13:01.423Z,90.00
2022-08-21T10:15:46.923Z,88.90
2022-08-21T10:18:31.101Z,90.00
2022-08-21T10:21:34.910Z,90.30
2022-08-21T10:24:07.509Z,89.70
2022-08-21T10:26:51.919Z,88.30
2022-08-21T10:29:33.860Z,84.70
2022-08-21T10:32:22.421Z,85.50
2022-08-21T10:35:37.967Z,86.10
2022-08-21T10:38:52.623Z,85.50
2022-08-21T10:42:28.136Z,85.60
2022-08-21T10:45:24.062Z,86.50
2022-08-21T10:48:04.926Z,86.30
2022-08-21T10:50:46.666Z,88.30
2022-08-21T10:54:04.919Z,87.60
2022-08-21T10:56:41.959Z,89.40
2022-08-21T10:59:38.614Z,88.50
2022-08-21T11:02:38.951Z,89.40
2022-08-21T11:05:18.491Z,87.50
2022-08-21T11:08:03.250Z,87.50
2022-08-21T11:10:40.845Z,88.10
2022-08-21T11:13:50.948Z,88.10
2022-08-21T11:16:37.964Z,88.10
2022-08-21T11:19:29.953Z,87.50
2022-08-21T11:22:23.617Z,85.80
2022-08-21T11:25:33.373Z,88.90
2022-08-21T11:28:14.834Z,89.10
2022-08-21T11:31:18.957Z,88.80
2022-08-21T11:34:02.979Z,89.50
2022-08-21T11:36:57.428Z,88.20
2022-08-21T11:40:01.063Z,88.50
2022-08-21T11:42:35.079Z,87.70
2022-08-21T11:45:40.964Z,88.80
2022-08-21T11:48:33.989Z,87.50
2022-08-21T11:51:07.994Z,88.60
2022-08-21T11:53:56.039Z,88.90
2022-08-21T11:56:33.766Z,88.90
2022-08-21T11:59:11.977Z,88.30
2022-08-21T12:01:43.072Z,90.20
2022-08-21T12:04:33.966Z,90.20
2022-08-21T12:07:22.990Z,90.50
2022-08-21T12:09:55.629Z,90.70
2022-08-21T12:12:44.014Z,90.20
2022-08-21T12:15:29.994Z,90.50
2022-08-21T12:18:04.992Z,90.20
2022-08-21T12:20:50.611Z,88.70
2022-08-21T12:23:25.449Z,89.50
2022-08-21T12:26:58.039Z,87.40
2022-08-21T12:29:44.152Z,86.80
2022-08-21T12:32:10.997Z,86.90
2022-08-21T12:35:19.842Z,87.60
2022-08-21T12:38:10.014Z,87.20
2022-08-21T12:41:03.026Z,87.90
2022-08-21T12:43:34.886Z,85.50
2022-08-21T12:46:10.034Z,86.10
2022-08-21T12:48:55.286Z,86.90
2022-08-21T12:52:09.056Z,85.80
2022-08-21T12:54:42.509Z,85.60
2022-08-21T12:57:17.032Z,86.20
2022-08-21T12:59:43.943Z,86.50
2022-08-21T13:02:27.074Z,86.60
2022-08-21T13:04:53.982Z,85.90
2022-08-21T13:07:34.059Z,86.40
2022-08-21T13:10:22.992Z,86.20
2022-08-21T13:12:56.063Z,86.10
2022-08-21T13:15:49.053Z,85.10
2022-08-21T13:18:35.067Z,83.90
2022-08-21T13:21:15.653Z,84.50
2022-08-21T13:23:49.362Z,85.30
2022-08-21T13:26:19.056Z,84.80
2022-08-21T13:28:53.119Z,84.30
2022-08-21T13:31:25.879Z,85.10
2022-08-21T13:33:59.072Z,85.70
2022-08-21T13:36:30.184Z,86.20
2022-08-21T13:39:04.070Z,86.10
2022-08-21T13:41:34.379Z,86.00
2022-08-21T13:44:10.098Z,87.60
2022-08-21T13:46:44.090Z,87.40
2022-08-21T13:49:11.377Z,87.20
2022-08-21T13:51:45.111Z,87.20
2022-08-21T13:54:29.097Z,87.20
2022-08-21T13:56:56.261Z,87.60
2022-08-21T13:59:39.089Z,88.00
2022-08-21T14:02:26.093Z,88.20
2022-08-21T14:05:06.105Z,88.90
2022-08-21T14:07:40.060Z,89.30
2022-08-21T14:10:34.122Z,88.60
2022-08-21T14:13:05.072Z,87.50
2022-08-21T14:15:41.102Z,87.00
2022-08-21T14:18:16.007Z,87.70
2022-08-21T14:20:50.097Z,87.00
2022-08-21T14:23:26.797Z,87.80
2022-08-21T14:26:00.134Z,86.70
2022-08-21T14:28:43.849Z,86.70
2022-08-21T14:31:28.127Z,86.90
2022-08-21T14:33:57.663Z,86.40
2022-08-21T14:36:31.120Z,86.60
2022-08-21T14:38:58.055Z,85.40
2022-08-21T14:41:33.128Z,85.30
2022-08-21T14:44:06.110Z,85.40
2022-08-21T14:46:55.250Z,85.70
2022-08-21T14:49:25.987Z,85.10
2022-08-21T14:51:59.428Z,85.30
2022-08-21T14:54:30.891Z,85.60
2022-08-21T14:57:23.140Z,85.50
2022-08-21T14:59:50.029Z,86.20
2022-08-21T15:02:23.154Z,86.90
2022-08-21T15:04:50.055Z,85.60
2022-08-21T15:07:16.957Z,85.90
2022-08-21T15:09:50.157Z,85.80
2022-08-21T15:12:17.049Z,85.60
2022-08-21T15:14:43.983Z,85.60
2022-08-21T15:17:18.198Z,86.30
2022-08-21T15:19:51.184Z,85.30
2022-08-21T15:22:27.696Z,86.80
2022-08-21T15:25:01.184Z,85.70
2022-08-21T15:27:28.085Z,85.20
2022-08-21T15:30:01.237Z,86.20
2022-08-21T15:32:29.105Z,86.00
2022-08-21T15:35:03.331Z,86.20
2022-08-21T15:37:30.282Z,85.90
2022-08-21T15:39:57.367Z,85.60
2022-08-21T15:42:31.176Z,84.90
2022-08-21T15:44:58.095Z,85.90
2022-08-21T15:47:41.180Z,85.50
2022-08-21T15:50:09.484Z,85.50
2022-08-21T15:52:43.179Z,84.60
2022-08-21T15:55:10.584Z,85.10
2022-08-21T15:57:45.162Z,84.00
2022-08-21T16:00:25.368Z,84.80
2022-08-21T16:03:02.189Z,86.40
2022-08-21T16:05:29.087Z,87.10
2022-08-21T16:08:02.226Z,86.20
2022-08-21T16:10:30.102Z,86.70
2022-08-21T16:13:09.192Z,85.60
2022-08-21T16:15:36.189Z,86.20
2022-08-21T16:18:03.442Z,86.00
2022-08-21T16:20:37.237Z,84.70
2022-08-21T16:23:04.194Z,84.90
2022-08-21T16:25:37.197Z,84.70
2022-08-21T16:28:15.222Z,82.30
2022-08-21T16:30:43.535Z,80.90
2022-08-21T16:33:43.239Z,81.30
2022-08-21T16:36:11.599Z,81.50
2022-08-21T16:38:38.727Z,82.50
2022-08-21T16:41:14.266Z,81.80
2022-08-21T16:43:48.230Z,82.80
2022-08-21T16:46:15.302Z,81.50
2022-08-21T16:48:49.244Z,81.00
2022-08-21T16:51:16.437Z,82.20
2022-08-21T16:53:50.229Z,81.70
2022-08-21T16:56:17.174Z,82.50
2022-08-21T16:58:53.259Z,81.30
2022-08-21T17:01:29.264Z,81.20
2022-08-21T17:03:56.374Z,81.60
2022-08-21T17:06:30.247Z,82.40
2022-08-21T17:08:58.041Z,80.90
2022-08-21T17:11:47.220Z,81.40
2022-08-21T17:14:22.024Z,82.50
2022-08-21T17:16:59.249Z,80.50
2022-08-21T17:19:26.173Z,81.70
2022-08-21T17:21:59.255Z,87.10
2022-08-21T17:24:26.181Z,91.20
2022-08-21T17:27:00.269Z,92.50
2022-08-21T17:29:34.807Z,93.10
2022-08-21T17:32:09.284Z,94.10
2022-08-21T17:34:36.664Z,95.50
2022-08-21T17:37:10.254Z,96.00
2022-08-21T17:39:37.270Z,96.20
2022-08-21T17:42:15.269Z,97.10
2022-08-21T17:44:51.286Z,97.00
2022-08-21T17:47:18.279Z,97.60
2022-08-21T17:49:51.274Z,98.00
2022-08-21T17:52:18.180Z,98.80
2022-08-21T17:54:51.272Z,98.60
2022-08-21T17:57:23.071Z,99.30
2022-08-21T17:59:58.374Z,99.90
2022-08-21T18:02:25.636Z,99.90
2022-08-21T18:04:59.296Z,99.90
2022-08-21T18:07:32.677Z,99.90
2022-08-21T18:10:08.305Z,99.90
2022-08-21T18:12:41.294Z,99.90
2022-08-21T18:15:09.934Z,99.90
2022-08-21T18:17:43.324Z,99.90
2022-08-21T18:20:10.864Z,99.90
2022-08-21T18:22:44.292Z,99.90
2022-08-21T18:25:18.330Z,99.90
2022-08-21T18:27:52.339Z,99.90
2022-08-21T18:30:21.642Z,99.90
2022-08-21T18:32:55.424Z,99.90
2022-08-21T18:35:29.293Z,99.90
2022-08-21T18:38:06.341Z,99.90
2022-08-21T18:40:33.729Z,99.90
2022-08-21T18:43:01.144Z,99.90
2022-08-21T18:45:35.342Z,99.90
2022-08-21T18:48:08.304Z,99.90
2022-08-21T18:50:36.599Z,99.90
2022-08-21T18:53:24.702Z,99.90
2022-08-21T18:55:56.962Z,99.90
2022-08-21T18:58:31.382Z,99.90
2022-08-21T19:00:58.354Z,99.90
2022-08-21T19:03:31.364Z,99.90
2022-08-21T19:05:58.470Z,99.90
2022-08-21T19:08:32.357Z,99.90
2022-08-21T19:10:59.320Z,99.90
2022-08-21T19:13:32.359Z,99.90
2022-08-21T19:16:05.384Z,99.90
2022-08-21T19:18:40.354Z,99.90
2022-08-21T19:21:14.337Z,99.90
2022-08-21T19:23:42.455Z,99.90
2022-08-21T19:26:17.377Z,99.90
2022-08-21T19:28:48.174Z,99.90
2022-08-21T19:31:32.510Z,99.90
2022-08-21T19:34:22.057Z,99.90
2022-08-21T19:36:55.355Z,99.90
2022-08-21T19:39:22.474Z,99.90
2022-08-21T19:42:01.371Z,99.90
2022-08-21T19:44:29.360Z,99.90
2022-08-21T19:47:05.530Z,99.90
2022-08-21T19:49:34.097Z,99.90
2022-08-21T19:52:13.806Z,99.90
2022-08-21T19:54:41.308Z,99.90
2022-08-21T19:57:16.372Z,99.90
2022-08-21T19:59:43.917Z,99.90
2022-08-21T20:02:21.385Z,99.90
2022-08-21T20:04:55.372Z,99.90
2022-08-21T20:07:29.357Z,99.90
2022-08-21T20:10:05.388Z,99.90
2022-08-21T20:12:39.389Z,99.90
2022-08-21T20:15:07.718Z,99.90
2022-08-21T20:17:43.031Z,99.90
2022-08-21T20:20:10.150Z,99.90
2022-08-21T20:22:45.396Z,99.90
2022-08-21T20:25:12.323Z,99.90
2022-08-21T20:27:47.416Z,99.90
2022-08-21T20:30:15.095Z,99.90
2022-08-21T20:32:51.421Z,99.90
2022-08-21T20:35:18.515Z,99.90
2022-08-21T20:37:58.542Z,99.90
2022-08-21T20:40:29.216Z,99.90
2022-08-21T20:43:05.458Z,99.90
2022-08-21T20:45:34.765Z,99.90
2022-08-21T20:48:23.651Z,99.90
2022-08-21T20:51:10.423Z,99.90
2022-08-21T20:54:17.492Z,99.90
2022-08-21T20:57:03.422Z,99.90
2022-08-21T20:59:33.432Z,99.90
2022-08-21T21:02:59.630Z,99.90
2022-08-21T21:06:07.445Z,99.90
2022-08-21T21:08:48.906Z,99.90
2022-08-21T21:11:41.441Z,99.90
2022-08-21T21:14:20.535Z,99.90
2022-08-21T21:17:03.457Z,99.90
2022-08-21T21:19:54.643Z,99.90
2022-08-21T21:22:41.442Z,99.90
2022-08-21T21:25:40.004Z,99.90
2022-08-21T21:28:21.443Z,99.90
2022-08-21T21:30:57.656Z,99.90
2022-08-21T21:33:31.462Z,99.90
2022-08-21T21:36:13.268Z,99.90
2022-08-21T21:38:54.460Z,99.90
2022-08-21T21:41:33.765Z,99.90
2022-08-21T21:44:44.457Z,99.90
2022-08-21T21:47:34.445Z,99.90
2022-08-21T21:50:42.644Z,99.90
2022-08-21T21:53:19.535Z,99.90
2022-08-21T21:56:30.477Z,99.90
2022-08-21T21:59:19.115Z,99.90
2022-08-21T22:02:09.454Z,99.90
2022-08-21T22:05:10.452Z,99.90
2022-08-21T22:08:24.525Z,99.90
2022-08-21T22:11:24.434Z,99.90
2022-08-21T22:14:11.473Z,99.90
2022-08-21T22:16:38.520Z,99.90
2022-08-21T22:19:34.490Z,99.90
2022-08-21T22:22:29.469Z,99.90
2022-08-21T22:25:22.188Z,99.90
2022-08-21T22:28:22.381Z,99.90
2022-08-21T22:31:25.999Z,99.90
2022-08-21T22:34:17.646Z,99.90
2022-08-21T22:37:12.099Z,99.90
2022-08-21T22:39:51.545Z,99.90
2022-08-21T22:45:17.502Z,99.90
2022-08-21T22:47:45.082Z,99.90
2022-08-21T22:50:32.534Z,99.90
2022-08-21T22:53:06.385Z,99.90
2022-08-21T22:55:46.510Z,99.90
2022-08-21T22:58:19.198Z,99.90
2022-08-21T23:01:02.545Z,99.90
2022-08-21T23:03:49.147Z,99.90
2022-08-21T23:07:00.752Z,99.90
2022-08-21T23:09:45.842Z,99.90
2022-08-21T23:15:43.872Z,99.90
2022-08-21T23:18:28.524Z,99.90
2022-08-21T23:21:35.054Z,99.90
2022-08-21T23:24:36.615Z,99.90
2022-08-21T23:27:54.017Z,99.90
2022-08-21T23:30:40.535Z,99.90
2022-08-21T23:34:08.540Z,99.90
2022-08-21T23:37:48.937Z,99.90
2022-08-21T23:41:01.567Z,99.90
2022-08-21T23:43:52.567Z,99.90
2022-08-21T23:46:45.499Z,99.90
2022-08-21T23:49:53.811Z,99.90
2022-08-21T23:56:19.643Z,99.90
2022-08-21T23:59:37.485Z,99.90
